sensor_id;sensor_type;location;lat;lon;timestamp;pressure;altitude;pressure_sealevel;temperature;humidity
62708;BME280;48769;51.624;5.886;2022-09-09T00:00:55;100645.94;;;14.95;100.00
62708;BME280;48769;51.624;5.886;2022-09-09T00:03:27;100649.22;;;14.99;100.00
62708;BME280;48769;51.624;5.886;2022-09-09T00:09:06;100639.19;;;15.02;100.00
62708;BME280;48769;51.624;5.886;2022-09-09T00:14:14;100640.88;;;15.03;100.00
62708;BME280;48769;51.624;5.886;2022-09-09T00:16:47;100643.25;;;14.95;100.00
62708;BME280;48769;51.624;5.886;2022-09-09T00:22:25;100645.19;;;14.93;100.00
62708;BME280;48769;51.624;5.886;2022-09-09T00:24:54;100635.38;;;14.93;100.00
62708;BME280;48769;51.624;5.886;2022-09-09T00:30:19;100636.44;;;14.91;100.00
62708;BME280;48769;51.624;5.886;2022-09-09T00:33:10;100631.34;;;14.88;100.00
62708;BME280;48769;51.624;5.886;2022-09-09T00:35:38;100640.53;;;14.84;100.00
62708;BME280;48769;51.624;5.886;2022-09-09T00:38:15;100633.50;;;14.83;100.00
62708;BME280;48769;51.624;5.886;2022-09-09T00:40:55;100630.84;;;14.83;100.00
62708;BME280;48769;51.624;5.886;2022-09-09T00:43:32;100632.25;;;14.76;100.00
62708;BME280;48769;51.624;5.886;2022-09-09T00:46:26;100630.75;;;14.71;100.00
62708;BME280;48769;51.624;5.886;2022-09-09T00:49:05;100624.38;;;14.74;100.00
62708;BME280;48769;51.624;5.886;2022-09-09T00:54:43;100629.41;;;14.66;100.00
62708;BME280;48769;51.624;5.886;2022-09-09T01:07:49;100618.78;;;14.66;100.00
62708;BME280;48769;51.624;5.886;2022-09-09T01:10:28;100619.72;;;14.65;100.00
62708;BME280;48769;51.624;5.886;2022-09-09T01:13:01;100619.94;;;14.62;100.00
62708;BME280;48769;51.624;5.886;2022-09-09T01:15:30;100617.63;;;14.57;100.00
62708;BME280;48769;51.624;5.886;2022-09-09T01:18:01;100609.66;;;14.57;100.00
62708;BME280;48769;51.624;5.886;2022-09-09T01:28:25;100607.22;;;14.41;100.00
62708;BME280;48769;51.624;5.886;2022-09-09T01:30:51;100605.09;;;14.46;100.00
62708;BME280;48769;51.624;5.886;2022-09-09T01:33:18;100612.19;;;14.46;100.00
62708;BME280;48769;51.624;5.886;2022-09-09T01:35:57;100607.13;;;14.43;100.00
62708;BME280;48769;51.624;5.886;2022-09-09T01:38:26;100611.69;;;14.41;100.00
62708;BME280;48769;51.624;5.886;2022-09-09T01:40:53;100610.00;;;14.40;100.00
62708;BME280;48769;51.624;5.886;2022-09-09T01:43:22;100613.59;;;14.39;100.00
62708;BME280;48769;51.624;5.886;2022-09-09T01:45:51;100611.69;;;14.41;100.00
62708;BME280;48769;51.624;5.886;2022-09-09T01:48:19;100608.25;;;14.39;100.00
62708;BME280;48769;51.624;5.886;2022-09-09T01:50:45;100602.44;;;14.34;100.00
62708;BME280;48769;51.624;5.886;2022-09-09T01:53:11;100601.25;;;14.38;100.00
62708;BME280;48769;51.624;5.886;2022-09-09T01:55:40;100598.38;;;14.41;100.00
62708;BME280;48769;51.624;5.886;2022-09-09T02:00:57;100604.88;;;14.37;100.00
62708;BME280;48769;51.624;5.886;2022-09-09T02:03:28;100603.16;;;14.36;100.00
62708;BME280;48769;51.624;5.886;2022-09-09T02:08:48;100602.22;;;14.37;100.00
62708;BME280;48769;51.624;5.886;2022-09-09T02:11:22;100600.19;;;14.40;100.00
62708;BME280;48769;51.624;5.886;2022-09-09T02:13:51;100591.88;;;14.45;100.00
62708;BME280;48769;51.624;5.886;2022-09-09T02:16:22;100591.03;;;14.44;100.00
62708;BME280;48769;51.624;5.886;2022-09-09T02:21:24;100591.59;;;14.37;100.00
62708;BME280;48769;51.624;5.886;2022-09-09T02:23:55;100587.22;;;14.36;100.00
62708;BME280;48769;51.624;5.886;2022-09-09T02:26:23;100583.00;;;14.33;100.00
62708;BME280;48769;51.624;5.886;2022-09-09T02:28:51;100579.59;;;14.31;100.00
62708;BME280;48769;51.624;5.886;2022-09-09T02:31:20;100584.91;;;14.31;100.00
62708;BME280;48769;51.624;5.886;2022-09-09T02:33:51;100580.44;;;14.32;100.00
62708;BME280;48769;51.624;5.886;2022-09-09T02:36:19;100577.56;;;14.35;100.00
62708;BME280;48769;51.624;5.886;2022-09-09T02:38:46;100573.84;;;14.37;100.00
62708;BME280;48769;51.624;5.886;2022-09-09T02:41:24;100574.69;;;14.38;100.00
62708;BME280;48769;51.624;5.886;2022-09-09T02:43:51;100568.41;;;14.39;100.00
62708;BME280;48769;51.624;5.886;2022-09-09T02:46:35;100581.47;;;14.42;100.00
62708;BME280;48769;51.624;5.886;2022-09-09T02:49:11;100579.78;;;14.41;100.00
62708;BME280;48769;51.624;5.886;2022-09-09T02:56:55;100593.84;;;14.30;100.00
62708;BME280;48769;51.624;5.886;2022-09-09T02:59:26;100591.06;;;14.32;100.00
62708;BME280;48769;51.624;5.886;2022-09-09T03:01:52;100597.13;;;14.34;100.00
62708;BME280;48769;51.624;5.886;2022-09-09T03:04:18;100594.25;;;14.37;100.00
62708;BME280;48769;51.624;5.886;2022-09-09T03:06:43;100588.72;;;14.40;100.00
62708;BME280;48769;51.624;5.886;2022-09-09T03:09:09;100587.00;;;14.39;100.00
62708;BME280;48769;51.624;5.886;2022-09-09T03:11:36;100591.59;;;14.37;100.00
62708;BME280;48769;51.624;5.886;2022-09-09T03:14:02;100591.38;;;14.40;100.00
62708;BME280;48769;51.624;5.886;2022-09-09T03:16:28;100584.47;;;14.37;100.00
62708;BME280;48769;51.624;5.886;2022-09-09T03:18:53;100586.50;;;14.34;100.00
62708;BME280;48769;51.624;5.886;2022-09-09T03:21:19;100587.22;;;14.36;100.00
62708;BME280;48769;51.624;5.886;2022-09-09T03:23:44;100584.56;;;14.36;100.00
62708;BME280;48769;51.624;5.886;2022-09-09T03:26:10;100585.31;;;14.38;100.00
62708;BME280;48769;51.624;5.886;2022-09-09T03:28:36;100584.25;;;14.40;100.00
62708;BME280;48769;51.624;5.886;2022-09-09T03:31:05;100589.78;;;14.37;100.00
62708;BME280;48769;51.624;5.886;2022-09-09T03:33:31;100592.09;;;14.42;100.00
62708;BME280;48769;51.624;5.886;2022-09-09T03:35:57;100584.25;;;14.40;100.00
62708;BME280;48769;51.624;5.886;2022-09-09T03:38:23;100585.72;;;14.44;100.00
62708;BME280;48769;51.624;5.886;2022-09-09T03:40:54;100580.84;;;14.51;100.00
62708;BME280;48769;51.624;5.886;2022-09-09T03:43:28;100587.75;;;14.54;100.00
62708;BME280;48769;51.624;5.886;2022-09-09T03:45:54;100594.44;;;14.59;100.00
62708;BME280;48769;51.624;5.886;2022-09-09T03:48:23;100600.50;;;14.61;100.00
62708;BME280;48769;51.624;5.886;2022-09-09T03:50:52;100600.19;;;14.66;100.00
62708;BME280;48769;51.624;5.886;2022-09-09T03:53:19;100593.75;;;14.68;100.00
62708;BME280;48769;51.624;5.886;2022-09-09T03:55:46;100597.59;;;14.64;100.00
62708;BME280;48769;51.624;5.886;2022-09-09T03:58:16;100593.97;;;14.65;100.00
62708;BME280;48769;51.624;5.886;2022-09-09T04:00:44;100591.84;;;14.70;100.00
62708;BME280;48769;51.624;5.886;2022-09-09T04:03:17;100593.31;;;14.75;100.00
62708;BME280;48769;51.624;5.886;2022-09-09T04:05:42;100596.72;;;14.77;100.00
62708;BME280;48769;51.624;5.886;2022-09-09T04:08:08;100589.72;;;14.76;100.00
62708;BME280;48769;51.624;5.886;2022-09-09T04:10:34;100587.06;;;14.76;100.00
62708;BME280;48769;51.624;5.886;2022-09-09T04:13:05;100588.75;;;14.77;100.00
62708;BME280;48769;51.624;5.886;2022-09-09T04:15:31;100599.25;;;14.78;100.00
62708;BME280;48769;51.624;5.886;2022-09-09T04:17:56;100594.47;;;14.83;100.00
62708;BME280;48769;51.624;5.886;2022-09-09T04:20:24;100590.97;;;14.83;100.00
62708;BME280;48769;51.624;5.886;2022-09-09T04:22:49;100581.78;;;14.87;100.00
62708;BME280;48769;51.624;5.886;2022-09-09T04:25:15;100575.50;;;14.88;100.00
62708;BME280;48769;51.624;5.886;2022-09-09T04:27:40;100574.56;;;14.89;100.00
62708;BME280;48769;51.624;5.886;2022-09-09T04:30:06;100577.44;;;14.86;100.00
62708;BME280;48769;51.624;5.886;2022-09-09T04:32:33;100571.16;;;14.87;100.00
62708;BME280;48769;51.624;5.886;2022-09-09T04:34:58;100570.19;;;14.88;100.00
62708;BME280;48769;51.624;5.886;2022-09-09T04:37:24;100569.00;;;14.92;100.00
62708;BME280;48769;51.624;5.886;2022-09-09T04:39:50;100576.88;;;14.93;100.00
62708;BME280;48769;51.624;5.886;2022-09-09T04:42:15;100574.81;;;14.97;100.00
62708;BME280;48769;51.624;5.886;2022-09-09T04:44:43;100563.22;;;14.98;100.00
62708;BME280;48769;51.624;5.886;2022-09-09T04:47:09;100573.84;;;14.98;100.00
62708;BME280;48769;51.624;5.886;2022-09-09T04:49:34;100569.72;;;14.94;100.00
62708;BME280;48769;51.624;5.886;2022-09-09T04:52:01;100572.28;;;14.95;100.00
62708;BME280;48769;51.624;5.886;2022-09-09T04:54:26;100558.03;;;14.96;100.00
62708;BME280;48769;51.624;5.886;2022-09-09T04:56:52;100564.19;;;14.97;100.00
62708;BME280;48769;51.624;5.886;2022-09-09T04:59:18;100565.88;;;14.98;100.00
62708;BME280;48769;51.624;5.886;2022-09-09T05:01:43;100565.78;;;15.00;100.00
62708;BME280;48769;51.624;5.886;2022-09-09T05:04:08;100552.34;;;15.01;100.00
62708;BME280;48769;51.624;5.886;2022-09-09T05:06:34;100558.53;;;15.02;100.00
62708;BME280;48769;51.624;5.886;2022-09-09T05:09:01;100550.66;;;15.00;100.00
62708;BME280;48769;51.624;5.886;2022-09-09T05:11:29;100550.66;;;15.00;100.00
62708;BME280;48769;51.624;5.886;2022-09-09T05:13:55;100559.16;;;15.05;100.00
62708;BME280;48769;51.624;5.886;2022-09-09T05:16:21;100550.44;;;15.03;100.00
62708;BME280;48769;51.624;5.886;2022-09-09T05:18:48;100555.28;;;15.09;100.00
62708;BME280;48769;51.624;5.886;2022-09-09T05:21:16;100556.97;;;15.10;100.00
62708;BME280;48769;51.624;5.886;2022-09-09T05:23:41;100552.84;;;15.06;100.00
62708;BME280;48769;51.624;5.886;2022-09-09T05:26:12;100553.09;;;15.03;100.00
62708;BME280;48769;51.624;5.886;2022-09-09T05:28:38;100559.88;;;15.07;100.00
62708;BME280;48769;51.624;5.886;2022-09-09T05:31:06;100545.63;;;15.08;100.00
62708;BME280;48769;51.624;5.886;2022-09-09T05:33:36;100551.88;;;15.07;100.00
62708;BME280;48769;51.624;5.886;2022-09-09T05:36:07;100550.81;;;15.10;100.00
62708;BME280;48769;51.624;5.886;2022-09-09T05:38:33;100555.28;;;15.09;100.00
62708;BME280;48769;51.624;5.886;2022-09-09T05:40:59;100548.28;;;15.08;100.00
62708;BME280;48769;51.624;5.886;2022-09-09T05:43:26;100552.50;;;15.11;100.00
62708;BME280;48769;51.624;5.886;2022-09-09T05:46:05;100551.78;;;15.09;100.00
62708;BME280;48769;51.624;5.886;2022-09-09T05:48:32;100560.25;;;15.14;100.00
62708;BME280;48769;51.624;5.886;2022-09-09T05:50:59;100551.56;;;15.12;100.00
62708;BME280;48769;51.624;5.886;2022-09-09T05:53:26;100554.84;;;15.15;100.00
62708;BME280;48769;51.624;5.886;2022-09-09T05:56:04;100562.81;;;15.15;100.00
62708;BME280;48769;51.624;5.886;2022-09-09T05:58:31;100554.69;;;15.17;100.00
62708;BME280;48769;51.624;5.886;2022-09-09T06:01:10;100557.38;;;15.17;100.00
62708;BME280;48769;51.624;5.886;2022-09-09T06:03:38;100556.28;;;15.19;100.00
62708;BME280;48769;51.624;5.886;2022-09-09T06:06:05;100567.56;;;15.23;100.00
62708;BME280;48769;51.624;5.886;2022-09-09T06:08:36;100564.03;;;15.23;100.00
62708;BME280;48769;51.624;5.886;2022-09-09T06:11:05;100566.94;;;15.19;100.00
62708;BME280;48769;51.624;5.886;2022-09-09T06:13:31;100568.16;;;15.27;100.00
62708;BME280;48769;51.624;5.886;2022-09-09T06:15:57;100571.34;;;15.32;100.00
62708;BME280;48769;51.624;5.886;2022-09-09T06:18:23;100563.84;;;15.37;100.00
62708;BME280;48769;51.624;5.886;2022-09-09T06:21:04;100564.22;;;15.43;100.00
62708;BME280;48769;51.624;5.886;2022-09-09T06:23:30;100577.44;;;15.56;100.00
62708;BME280;48769;51.624;5.886;2022-09-09T06:26:07;100576.25;;;15.60;100.00
62708;BME280;48769;51.624;5.886;2022-09-09T06:28:35;100573.41;;;15.75;100.00
62708;BME280;48769;51.624;5.886;2022-09-09T06:31:03;100579.22;;;15.80;100.00
62708;BME280;48769;51.624;5.886;2022-09-09T06:33:36;100575.97;;;15.87;100.00
62708;BME280;48769;51.624;5.886;2022-09-09T06:36:04;100572.94;;;15.92;100.00
62708;BME280;48769;51.624;5.886;2022-09-09T06:38:30;100564.47;;;15.98;100.00
62708;BME280;48769;51.624;5.886;2022-09-09T06:40:57;100568.09;;;16.08;100.00
62708;BME280;48769;51.624;5.886;2022-09-09T06:43:24;100565.41;;;16.08;100.00
62708;BME280;48769;51.624;5.886;2022-09-09T06:46:00;100567.38;;;16.18;100.00
62708;BME280;48769;51.624;5.886;2022-09-09T06:48:27;100565.19;;;16.23;100.00
62708;BME280;48769;51.624;5.886;2022-09-09T06:51:14;100569.78;;;16.32;100.00
62708;BME280;48769;51.624;5.886;2022-09-09T06:53:41;100567.22;;;16.53;100.00
62708;BME280;48769;51.624;5.886;2022-09-09T06:58:36;100569.16;;;16.40;100.00
62708;BME280;48769;51.624;5.886;2022-09-09T07:01:06;100565.91;;;16.36;100.00
62708;BME280;48769;51.624;5.886;2022-09-09T07:03:32;100570.50;;;16.34;100.00
62708;BME280;48769;51.624;5.886;2022-09-09T07:05:58;100572.22;;;16.35;100.00
62708;BME280;48769;51.624;5.886;2022-09-09T07:08:24;100568.56;;;16.36;100.00
62708;BME280;48769;51.624;5.886;2022-09-09T07:10:50;100568.44;;;16.49;100.00
62708;BME280;48769;51.624;5.886;2022-09-09T07:13:27;100571.41;;;16.67;100.00
62708;BME280;48769;51.624;5.886;2022-09-09T07:15:53;100568.28;;;16.84;100.00
62708;BME280;48769;51.624;5.886;2022-09-09T07:18:19;100572.22;;;17.01;100.00
62708;BME280;48769;51.624;5.886;2022-09-09T07:20:54;100567.75;;;16.90;100.00
62708;BME280;48769;51.624;5.886;2022-09-09T07:23:22;100570.72;;;17.08;100.00
62708;BME280;48769;51.624;5.886;2022-09-09T07:25:47;100565.94;;;17.86;100.00
62708;BME280;48769;51.624;5.886;2022-09-09T07:28:13;100565.47;;;19.02;100.00
62708;BME280;48769;51.624;5.886;2022-09-09T07:30:39;100569.09;;;19.49;100.00
62708;BME280;48769;51.624;5.886;2022-09-09T07:33:08;100558.09;;;20.37;100.00
62708;BME280;48769;51.624;5.886;2022-09-09T07:35:34;100551.53;;;21.30;100.00
62708;BME280;48769;51.624;5.886;2022-09-09T07:38:03;100550.63;;;21.39;100.00
62708;BME280;48769;51.624;5.886;2022-09-09T07:40:33;100560.25;;;20.61;100.00
62708;BME280;48769;51.624;5.886;2022-09-09T07:42:59;100559.72;;;20.20;100.00
62708;BME280;48769;51.624;5.886;2022-09-09T07:45:24;100571.34;;;19.54;100.00
62708;BME280;48769;51.624;5.886;2022-09-09T07:47:50;100566.59;;;18.99;100.00
62708;BME280;48769;51.624;5.886;2022-09-09T07:50:15;100570.72;;;18.63;100.00
62708;BME280;48769;51.624;5.886;2022-09-09T07:52:40;100576.34;;;18.60;100.00
62708;BME280;48769;51.624;5.886;2022-09-09T07:55:06;100568.59;;;18.57;100.00
62708;BME280;48769;51.624;5.886;2022-09-09T07:57:32;100572.34;;;18.95;100.00
62708;BME280;48769;51.624;5.886;2022-09-09T07:59:57;100565.75;;;19.18;100.00
62708;BME280;48769;51.624;5.886;2022-09-09T08:02:25;100561.19;;;19.48;100.00
62708;BME280;48769;51.624;5.886;2022-09-09T08:04:53;100571.66;;;18.92;100.00
62708;BME280;48769;51.624;5.886;2022-09-09T08:07:18;100577.44;;;18.48;100.00
62708;BME280;48769;51.624;5.886;2022-09-09T08:09:45;100571.38;;;18.96;100.00
62708;BME280;48769;51.624;5.886;2022-09-09T08:12:10;100580.09;;;19.36;100.00
62708;BME280;48769;51.624;5.886;2022-09-09T08:14:38;100578.97;;;19.20;100.00
62708;BME280;48769;51.624;5.886;2022-09-09T08:17:05;100589.81;;;18.89;100.00
62708;BME280;48769;51.624;5.886;2022-09-09T08:19:30;100587.03;;;18.50;100.00
62708;BME280;48769;51.624;5.886;2022-09-09T08:22:31;100591.50;;;18.40;100.00
62708;BME280;48769;51.624;5.886;2022-09-09T08:24:56;100587.00;;;18.40;100.00
62708;BME280;48769;51.624;5.886;2022-09-09T08:27:22;100590.34;;;18.33;100.00
62708;BME280;48769;51.624;5.886;2022-09-09T08:29:47;100598.66;;;18.30;100.00
62708;BME280;48769;51.624;5.886;2022-09-09T08:32:27;100602.16;;;18.30;100.00
62708;BME280;48769;51.624;5.886;2022-09-09T08:34:52;100601.22;;;18.41;100.00
62708;BME280;48769;51.624;5.886;2022-09-09T08:37:18;100601.78;;;18.44;100.00
62708;BME280;48769;51.624;5.886;2022-09-09T08:39:45;100604.34;;;18.46;100.00
62708;BME280;48769;51.624;5.886;2022-09-09T08:45:09;100603.75;;;18.42;100.00
62708;BME280;48769;51.624;5.886;2022-09-09T08:50:26;100599.75;;;18.27;100.00
62708;BME280;48769;51.624;5.886;2022-09-09T08:55:54;100595.94;;;18.20;100.00
62708;BME280;48769;51.624;5.886;2022-09-09T08:58:26;100598.03;;;18.26;100.00
62708;BME280;48769;51.624;5.886;2022-09-09T09:03:43;100605.44;;;18.13;100.00
62708;BME280;48769;51.624;5.886;2022-09-09T09:11:55;100605.91;;;18.18;100.00
62708;BME280;48769;51.624;5.886;2022-09-09T09:14:28;100606.06;;;18.26;100.00
62708;BME280;48769;51.624;5.886;2022-09-09T09:17:04;100611.34;;;18.37;100.00
62708;BME280;48769;51.624;5.886;2022-09-09T09:19:33;100613.22;;;18.47;100.00
62708;BME280;48769;51.624;5.886;2022-09-09T09:22:06;100609.59;;;18.67;100.00
62708;BME280;48769;51.624;5.886;2022-09-09T09:25:02;100603.31;;;18.87;100.00
62708;BME280;48769;51.624;5.886;2022-09-09T09:30:20;100610.94;;;18.82;100.00
62708;BME280;48769;51.624;5.886;2022-09-09T09:32:51;100606.19;;;18.65;100.00
62708;BME280;48769;51.624;5.886;2022-09-09T09:35:18;100612.25;;;18.57;100.00
62708;BME280;48769;51.624;5.886;2022-09-09T09:37:43;100613.22;;;18.47;100.00
62708;BME280;48769;51.624;5.886;2022-09-09T09:40:12;100605.25;;;18.35;100.00
62708;BME280;48769;51.624;5.886;2022-09-09T09:46:05;100611.16;;;18.29;100.00
62708;BME280;48769;51.624;5.886;2022-09-09T09:48:42;100609.72;;;18.25;100.00
62708;BME280;48769;51.624;5.886;2022-09-09T09:51:13;100610.31;;;18.29;100.00
62708;BME280;48769;51.624;5.886;2022-09-09T09:53:41;100614.41;;;18.33;100.00
62708;BME280;48769;51.624;5.886;2022-09-09T09:56:09;100607.25;;;18.33;100.00
62708;BME280;48769;51.624;5.886;2022-09-09T10:01:28;100609.88;;;18.24;100.00
62708;BME280;48769;51.624;5.886;2022-09-09T10:03:58;100606.47;;;18.21;100.00
62708;BME280;48769;51.624;5.886;2022-09-09T10:06:36;100616.34;;;18.21;100.00
62708;BME280;48769;51.624;5.886;2022-09-09T10:09:23;100614.59;;;18.10;100.00
62708;BME280;48769;51.624;5.886;2022-09-09T10:26:32;100612.03;;;18.30;100.00
62708;BME280;48769;51.624;5.886;2022-09-09T10:32:33;100598.66;;;18.30;100.00
62708;BME280;48769;51.624;5.886;2022-09-09T10:35:33;100605.88;;;18.49;100.00
62708;BME280;48769;51.624;5.886;2022-09-09T10:40:43;100621.88;;;18.69;100.00
62708;BME280;48769;51.624;5.886;2022-09-09T10:43:39;100601.69;;;18.56;100.00
62708;BME280;48769;51.624;5.886;2022-09-09T10:56:28;100613.22;;;18.47;100.00
62708;BME280;48769;51.624;5.886;2022-09-09T10:59:12;100606.88;;;18.48;100.00
62708;BME280;48769;51.624;5.886;2022-09-09T11:01:57;100615.31;;;18.43;100.00
62708;BME280;48769;51.624;5.886;2022-09-09T11:04:35;100623.03;;;18.36;100.00
62708;BME280;48769;51.624;5.886;2022-09-09T11:07:07;100627.91;;;18.31;100.00
62708;BME280;48769;51.624;5.886;2022-09-09T11:09:39;100630.75;;;18.09;100.00
62708;BME280;48769;51.624;5.886;2022-09-09T11:12:10;100635.69;;;17.83;100.00
62708;BME280;48769;51.624;5.886;2022-09-09T11:14:43;100631.28;;;17.61;100.00
62708;BME280;48769;51.624;5.886;2022-09-09T11:17:13;100629.00;;;17.56;100.00
62708;BME280;48769;51.624;5.886;2022-09-09T11:19:42;100630.59;;;17.47;100.00
62708;BME280;48769;51.624;5.886;2022-09-09T11:22:18;100629.94;;;17.34;100.00
62708;BME280;48769;51.624;5.886;2022-09-09T11:25:08;100626.81;;;17.29;100.00
62708;BME280;48769;51.624;5.886;2022-09-09T11:39:06;100643.34;;;16.46;100.00
62708;BME280;48769;51.624;5.886;2022-09-09T11:41:39;100642.00;;;16.40;100.00
62708;BME280;48769;51.624;5.886;2022-09-09T11:44:11;100628.91;;;16.37;100.00
62708;BME280;48769;51.624;5.886;2022-09-09T11:46:38;100632.81;;;16.22;100.00
62708;BME280;48769;51.624;5.886;2022-09-09T11:49:06;100629.50;;;16.18;100.00
62708;BME280;48769;51.624;5.886;2022-09-09T11:51:33;100641.03;;;16.19;100.00
62708;BME280;48769;51.624;5.886;2022-09-09T11:54:25;100649.13;;;16.17;100.00
62708;BME280;48769;51.624;5.886;2022-09-09T11:56:48;100638.25;;;16.20;100.00
62708;BME280;48769;51.624;5.886;2022-09-09T12:02:12;100632.44;;;16.49;100.00
62708;BME280;48769;51.624;5.886;2022-09-09T12:05:07;100631.31;;;16.85;100.00
62708;BME280;48769;51.624;5.886;2022-09-09T12:07:57;100634.19;;;17.04;100.00
62708;BME280;48769;51.624;5.886;2022-09-09T12:10:27;100632.66;;;17.23;100.00
62708;BME280;48769;51.624;5.886;2022-09-09T12:12:54;100627.44;;;17.21;100.00
62708;BME280;48769;51.624;5.886;2022-09-09T12:15:22;100629.00;;;17.24;100.00
62708;BME280;48769;51.624;5.886;2022-09-09T12:17:51;100631.69;;;17.24;100.00
62708;BME280;48769;51.624;5.886;2022-09-09T12:20:22;100628.75;;;17.27;100.00
62708;BME280;48769;51.624;5.886;2022-09-09T12:28:10;100632.44;;;17.15;100.00
62708;BME280;48769;51.624;5.886;2022-09-09T12:33:16;100626.75;;;17.08;100.00
62708;BME280;48769;51.624;5.886;2022-09-09T12:35:44;100621.91;;;17.13;100.00
62708;BME280;48769;51.624;5.886;2022-09-09T12:38:21;100610.47;;;17.22;100.00
62708;BME280;48769;51.624;5.886;2022-09-09T12:40:55;100610.25;;;17.35;100.00
62708;BME280;48769;51.624;5.886;2022-09-09T12:43:22;100610.31;;;17.56;100.00
62708;BME280;48769;51.624;5.886;2022-09-09T12:45:49;100611.09;;;17.68;100.00
62708;BME280;48769;51.624;5.886;2022-09-09T12:48:26;100606.03;;;17.86;100.00
62708;BME280;48769;51.624;5.886;2022-09-09T12:50:54;100608.84;;;18.15;100.00
62708;BME280;48769;51.624;5.886;2022-09-09T12:53:35;100610.00;;;18.22;100.00
62708;BME280;48769;51.624;5.886;2022-09-09T12:56:08;100600.44;;;18.29;100.00
62708;BME280;48769;51.624;5.886;2022-09-09T12:58:45;100598.28;;;18.44;100.00
62708;BME280;48769;51.624;5.886;2022-09-09T13:01:21;100602.81;;;18.53;100.00
62708;BME280;48769;51.624;5.886;2022-09-09T13:03:47;100603.66;;;18.54;100.00
62708;BME280;48769;51.624;5.886;2022-09-09T13:06:20;100601.41;;;18.59;100.00
62708;BME280;48769;51.624;5.886;2022-09-09T13:08:48;100602.81;;;18.53;100.00
62708;BME280;48769;51.624;5.886;2022-09-09T13:11:17;100595.09;;;18.60;100.00
62708;BME280;48769;51.624;5.886;2022-09-09T13:13:51;100585.03;;;18.52;100.00
62708;BME280;48769;51.624;5.886;2022-09-09T13:16:32;100584.19;;;18.42;100.00
62708;BME280;48769;51.624;5.886;2022-09-09T13:19:00;100579.63;;;18.33;100.00
62708;BME280;48769;51.624;5.886;2022-09-09T13:21:38;100580.16;;;18.17;100.00
62708;BME280;48769;51.624;5.886;2022-09-09T13:24:06;100580.69;;;18.11;100.00
62708;BME280;48769;51.624;5.886;2022-09-09T13:26:33;100579.25;;;18.07;100.00
62708;BME280;48769;51.624;5.886;2022-09-09T13:29:16;100581.34;;;18.03;100.00
62708;BME280;48769;51.624;5.886;2022-09-09T13:31:44;100572.50;;;18.03;100.00
62708;BME280;48769;51.624;5.886;2022-09-09T13:34:32;100583.31;;;18.01;100.00
62708;BME280;48769;51.624;5.886;2022-09-09T13:36:59;100574.72;;;17.97;100.00
62708;BME280;48769;51.624;5.886;2022-09-09T13:39:27;100575.88;;;18.05;100.00
62708;BME280;48769;51.624;5.886;2022-09-09T13:41:53;100562.78;;;18.02;100.00
62708;BME280;48769;51.624;5.886;2022-09-09T13:47:03;100551.94;;;18.03;100.00
62708;BME280;48769;51.624;5.886;2022-09-09T13:49:29;100552.53;;;18.07;100.00
62708;BME280;48769;51.624;5.886;2022-09-09T13:52:16;100551.56;;;18.08;100.00
62708;BME280;48769;51.624;5.886;2022-09-09T13:54:42;100549.75;;;18.18;100.00
62708;BME280;48769;51.624;5.886;2022-09-09T13:57:16;100548.09;;;18.17;100.00
62708;BME280;48769;51.624;5.886;2022-09-09T13:59:43;100546.69;;;18.32;100.00
62708;BME280;48769;51.624;5.886;2022-09-09T14:02:09;100549.41;;;18.42;100.00
62708;BME280;48769;51.624;5.886;2022-09-09T14:04:34;100557.19;;;18.55;100.00
62708;BME280;48769;51.624;5.886;2022-09-09T14:07:01;100558.31;;;18.62;100.00
62708;BME280;48769;51.624;5.886;2022-09-09T14:09:26;100558.03;;;18.65;100.00
62708;BME280;48769;51.624;5.886;2022-09-09T14:11:52;100560.72;;;18.65;100.00
62708;BME280;48769;51.624;5.886;2022-09-09T14:14:17;100557.25;;;18.74;100.00
62708;BME280;48769;51.624;5.886;2022-09-09T14:16:43;100566.28;;;18.73;100.00
62708;BME280;48769;51.624;5.886;2022-09-09T14:19:08;100564.31;;;18.75;100.00
62708;BME280;48769;51.624;5.886;2022-09-09T14:21:34;100567.94;;;18.74;100.00
62708;BME280;48769;51.624;5.886;2022-09-09T14:24:00;100576.97;;;18.73;100.00
62708;BME280;48769;51.624;5.886;2022-09-09T14:26:25;100568.75;;;18.65;100.00
62708;BME280;48769;51.624;5.886;2022-09-09T14:28:51;100580.81;;;18.40;100.00
62708;BME280;48769;51.624;5.886;2022-09-09T14:31:17;100568.91;;;18.23;100.00
62708;BME280;48769;51.624;5.886;2022-09-09T14:33:46;100562.13;;;18.19;100.00
62708;BME280;48769;51.624;5.886;2022-09-09T14:36:12;100566.00;;;18.36;100.00
62708;BME280;48769;51.624;5.886;2022-09-09T14:38:38;100569.03;;;18.72;100.00
62708;BME280;48769;51.624;5.886;2022-09-09T14:41:12;100574.72;;;18.98;100.00
62708;BME280;48769;51.624;5.886;2022-09-09T14:43:38;100561.34;;;18.98;100.00
62708;BME280;48769;51.624;5.886;2022-09-09T14:46:08;100564.91;;;19.08;100.00
62708;BME280;48769;51.624;5.886;2022-09-09T14:48:35;100560.66;;;18.96;100.00
62708;BME280;48769;51.624;5.886;2022-09-09T14:51:11;100564.00;;;18.78;100.00
62708;BME280;48769;51.624;5.886;2022-09-09T14:53:38;100555.56;;;18.73;100.00
62708;BME280;48769;51.624;5.886;2022-09-09T14:56:12;100557.78;;;18.68;100.00
62708;BME280;48769;51.624;5.886;2022-09-09T14:58:38;100559.25;;;18.72;100.00
62708;BME280;48769;51.624;5.886;2022-09-09T15:01:09;100563.59;;;18.73;100.00
62708;BME280;48769;51.624;5.886;2022-09-09T15:03:39;100571.38;;;18.86;100.00
62708;BME280;48769;51.624;5.886;2022-09-09T15:06:06;100563.47;;;18.94;100.00